sensor_id;sensor_type;location;lat;lon;timestamp;P1;durP1;ratioP1;P2;durP2;ratioP2
13147;SDS011;6639;50.956;4.242;2022-07-29T00:00:00;3.17;;;1.90;;
13147;SDS011;6639;50.956;4.242;2022-07-29T00:02:27;3.05;;;1.92;;
13147;SDS011;6639;50.956;4.242;2022-07-29T00:04:54;4.15;;;2.20;;
13147;SDS011;6639;50.956;4.242;2022-07-29T00:07:21;2.22;;;1.48;;
13147;SDS011;6639;50.956;4.242;2022-07-29T00:09:49;4.63;;;2.05;;
13147;SDS011;6639;50.956;4.242;2022-07-29T00:12:16;2.10;;;1.50;;
13147;SDS011;6639;50.956;4.242;2022-07-29T00:14:44;1.95;;;1.58;;
13147;SDS011;6639;50.956;4.242;2022-07-29T00:17:10;4.13;;;2.20;;
13147;SDS011;6639;50.956;4.242;2022-07-29T00:19:37;3.38;;;1.80;;
13147;SDS011;6639;50.956;4.242;2022-07-29T00:22:04;2.40;;;1.50;;
13147;SDS011;6639;50.956;4.242;2022-07-29T00:24:31;2.75;;;1.60;;
13147;SDS011;6639;50.956;4.242;2022-07-29T00:26:59;1.88;;;1.58;;
13147;SDS011;6639;50.956;4.242;2022-07-29T00:29:26;3.13;;;1.90;;
13147;SDS011;6639;50.956;4.242;2022-07-29T00:31:53;4.80;;;1.70;;
13147;SDS011;6639;50.956;4.242;2022-07-29T00:34:20;4.32;;;1.45;;
13147;SDS011;6639;50.956;4.242;2022-07-29T00:37:04;2.70;;;1.92;;
13147;SDS011;6639;50.956;4.242;2022-07-29T00:39:31;3.08;;;1.52;;
13147;SDS011;6639;50.956;4.242;2022-07-29T00:41:59;2.80;;;1.50;;
13147;SDS011;6639;50.956;4.242;2022-07-29T00:44:28;2.70;;;1.30;;
13147;SDS011;6639;50.956;4.242;2022-07-29T00:46:56;2.20;;;1.45;;
13147;SDS011;6639;50.956;4.242;2022-07-29T00:49:23;2.97;;;1.98;;
13147;SDS011;6639;50.956;4.242;2022-07-29T00:51:50;3.58;;;1.67;;
13147;SDS011;6639;50.956;4.242;2022-07-29T00:54:17;2.42;;;1.60;;
13147;SDS011;6639;50.956;4.242;2022-07-29T00:56:44;3.15;;;1.25;;
13147;SDS011;6639;50.956;4.242;2022-07-29T00:59:12;4.15;;;1.48;;
13147;SDS011;6639;50.956;4.242;2022-07-29T01:01:39;3.13;;;1.75;;
13147;SDS011;6639;50.956;4.242;2022-07-29T01:04:06;3.35;;;1.65;;
13147;SDS011;6639;50.956;4.242;2022-07-29T01:06:33;3.33;;;1.50;;
13147;SDS011;6639;50.956;4.242;2022-07-29T01:09:01;2.75;;;1.83;;
13147;SDS011;6639;50.956;4.242;2022-07-29T01:11:28;3.75;;;1.45;;
13147;SDS011;6639;50.956;4.242;2022-07-29T01:13:55;2.70;;;2.00;;
13147;SDS011;6639;50.956;4.242;2022-07-29T01:16:25;4.97;;;2.13;;
13147;SDS011;6639;50.956;4.242;2022-07-29T01:19:00;4.60;;;1.95;;
13147;SDS011;6639;50.956;4.242;2022-07-29T01:21:39;3.00;;;1.48;;
13147;SDS011;6639;50.956;4.242;2022-07-29T01:27:26;2.97;;;1.40;;
13147;SDS011;6639;50.956;4.242;2022-07-29T01:30:07;3.85;;;1.70;;
13147;SDS011;6639;50.956;4.242;2022-07-29T01:32:35;3.33;;;1.80;;
13147;SDS011;6639;50.956;4.242;2022-07-29T01:35:04;3.58;;;1.77;;
13147;SDS011;6639;50.956;4.242;2022-07-29T01:37:37;1.92;;;1.63;;
13147;SDS011;6639;50.956;4.242;2022-07-29T01:40:11;4.03;;;1.52;;
13147;SDS011;6639;50.956;4.242;2022-07-29T01:42:48;3.05;;;1.70;;
13147;SDS011;6639;50.956;4.242;2022-07-29T01:45:20;2.55;;;1.55;;
13147;SDS011;6639;50.956;4.242;2022-07-29T01:47:54;2.85;;;1.73;;
13147;SDS011;6639;50.956;4.242;2022-07-29T01:50:28;3.17;;;1.63;;
13147;SDS011;6639;50.956;4.242;2022-07-29T01:53:00;4.55;;;1.92;;
13147;SDS011;6639;50.956;4.242;2022-07-29T01:55:32;4.45;;;1.88;;
13147;SDS011;6639;50.956;4.242;2022-07-29T01:58:03;3.50;;;1.80;;
13147;SDS011;6639;50.956;4.242;2022-07-29T02:00:32;2.90;;;1.67;;
13147;SDS011;6639;50.956;4.242;2022-07-29T02:03:02;1.80;;;1.70;;
13147;SDS011;6639;50.956;4.242;2022-07-29T02:05:33;2.50;;;2.00;;
13147;SDS011;6639;50.956;4.242;2022-07-29T02:08:03;2.15;;;1.77;;
13147;SDS011;6639;50.956;4.242;2022-07-29T02:10:32;4.95;;;2.55;;
13147;SDS011;6639;50.956;4.242;2022-07-29T02:13:00;4.07;;;1.83;;
13147;SDS011;6639;50.956;4.242;2022-07-29T02:15:30;5.00;;;1.65;;
13147;SDS011;6639;50.956;4.242;2022-07-29T02:18:01;3.50;;;1.70;;
13147;SDS011;6639;50.956;4.242;2022-07-29T02:20:31;2.45;;;1.80;;
13147;SDS011;6639;50.956;4.242;2022-07-29T02:22:59;1.98;;;1.70;;
13147;SDS011;6639;50.956;4.242;2022-07-29T02:25:27;3.95;;;1.83;;
13147;SDS011;6639;50.956;4.242;2022-07-29T02:27:55;3.53;;;1.90;;
13147;SDS011;6639;50.956;4.242;2022-07-29T02:30:22;5.68;;;2.15;;
13147;SDS011;6639;50.956;4.242;2022-07-29T02:32:52;2.30;;;1.95;;
13147;SDS011;6639;50.956;4.242;2022-07-29T02:35:20;3.38;;;1.98;;
13147;SDS011;6639;50.956;4.242;2022-07-29T02:37:48;2.72;;;2.17;;
13147;SDS011;6639;50.956;4.242;2022-07-29T02:40:30;2.28;;;2.05;;
13147;SDS011;6639;50.956;4.242;2022-07-29T02:42:58;2.35;;;1.70;;
13147;SDS011;6639;50.956;4.242;2022-07-29T02:45:26;4.88;;;1.90;;
13147;SDS011;6639;50.956;4.242;2022-07-29T02:47:55;1.98;;;1.70;;
13147;SDS011;6639;50.956;4.242;2022-07-29T02:50:27;2.30;;;2.10;;
13147;SDS011;6639;50.956;4.242;2022-07-29T02:53:00;4.95;;;2.10;;
13147;SDS011;6639;50.956;4.242;2022-07-29T02:55:40;4.88;;;1.90;;
13147;SDS011;6639;50.956;4.242;2022-07-29T02:58:13;2.22;;;1.90;;
13147;SDS011;6639;50.956;4.242;2022-07-29T03:00:46;4.30;;;2.17;;
13147;SDS011;6639;50.956;4.242;2022-07-29T03:03:16;3.65;;;2.22;;
13147;SDS011;6639;50.956;4.242;2022-07-29T03:05:45;5.10;;;2.10;;
13147;SDS011;6639;50.956;4.242;2022-07-29T03:08:12;2.65;;;1.92;;
13147;SDS011;6639;50.956;4.242;2022-07-29T03:10:42;2.33;;;2.05;;
13147;SDS011;6639;50.956;4.242;2022-07-29T03:13:10;3.22;;;1.65;;
13147;SDS011;6639;50.956;4.242;2022-07-29T03:15:38;3.85;;;2.13;;
13147;SDS011;6639;50.956;4.242;2022-07-29T03:18:06;2.83;;;1.92;;
13147;SDS011;6639;50.956;4.242;2022-07-29T03:20:34;3.13;;;2.47;;
13147;SDS011;6639;50.956;4.242;2022-07-29T03:23:02;2.67;;;2.30;;
13147;SDS011;6639;50.956;4.242;2022-07-29T03:25:29;4.28;;;2.35;;
13147;SDS011;6639;50.956;4.242;2022-07-29T03:27:56;2.33;;;1.88;;
13147;SDS011;6639;50.956;4.242;2022-07-29T03:30:23;2.25;;;2.05;;
13147;SDS011;6639;50.956;4.242;2022-07-29T03:32:50;3.38;;;2.03;;
13147;SDS011;6639;50.956;4.242;2022-07-29T03:35:19;2.30;;;2.13;;
13147;SDS011;6639;50.956;4.242;2022-07-29T03:37:48;2.78;;;2.03;;
13147;SDS011;6639;50.956;4.242;2022-07-29T03:40:16;3.60;;;2.33;;
13147;SDS011;6639;50.956;4.242;2022-07-29T03:42:49;2.03;;;1.83;;
13147;SDS011;6639;50.956;4.242;2022-07-29T03:45:18;3.63;;;2.30;;
13147;SDS011;6639;50.956;4.242;2022-07-29T03:47:48;5.95;;;2.42;;
13147;SDS011;6639;50.956;4.242;2022-07-29T03:50:19;2.10;;;2.00;;
13147;SDS011;6639;50.956;4.242;2022-07-29T03:52:48;2.20;;;1.95;;
13147;SDS011;6639;50.956;4.242;2022-07-29T03:55:16;2.92;;;2.50;;
13147;SDS011;6639;50.956;4.242;2022-07-29T03:57:43;2.58;;;2.33;;
13147;SDS011;6639;50.956;4.242;2022-07-29T04:00:11;4.47;;;2.20;;
13147;SDS011;6639;50.956;4.242;2022-07-29T04:02:40;2.60;;;2.05;;
13147;SDS011;6639;50.956;4.242;2022-07-29T04:05:11;2.78;;;2.17;;
13147;SDS011;6639;50.956;4.242;2022-07-29T04:07:38;4.38;;;2.40;;
13147;SDS011;6639;50.956;4.242;2022-07-29T04:10:07;2.97;;;2.47;;
13147;SDS011;6639;50.956;4.242;2022-07-29T04:12:34;2.58;;;2.33;;
13147;SDS011;6639;50.956;4.242;2022-07-29T04:15:01;4.18;;;2.70;;
13147;SDS011;6639;50.956;4.242;2022-07-29T04:17:28;2.65;;;2.17;;
13147;SDS011;6639;50.956;4.242;2022-07-29T04:19:55;4.45;;;2.53;;
13147;SDS011;6639;50.956;4.242;2022-07-29T04:22:22;2.55;;;2.35;;
13147;SDS011;6639;50.956;4.242;2022-07-29T04:24:49;5.18;;;2.10;;
13147;SDS011;6639;50.956;4.242;2022-07-29T04:27:18;3.13;;;2.55;;
13147;SDS011;6639;50.956;4.242;2022-07-29T04:29:45;3.45;;;2.30;;
13147;SDS011;6639;50.956;4.242;2022-07-29T04:32:11;2.85;;;2.55;;
13147;SDS011;6639;50.956;4.242;2022-07-29T04:34:38;2.65;;;2.13;;
13147;SDS011;6639;50.956;4.242;2022-07-29T04:37:05;3.72;;;2.22;;
13147;SDS011;6639;50.956;4.242;2022-07-29T04:39:32;6.20;;;2.30;;
13147;SDS011;6639;50.956;4.242;2022-07-29T04:41:59;2.38;;;2.00;;
13147;SDS011;6639;50.956;4.242;2022-07-29T04:44:27;2.67;;;2.30;;
13147;SDS011;6639;50.956;4.242;2022-07-29T04:46:54;2.75;;;2.33;;
13147;SDS011;6639;50.956;4.242;2022-07-29T04:49:21;2.70;;;2.40;;
13147;SDS011;6639;50.956;4.242;2022-07-29T04:51:48;7.82;;;2.47;;
13147;SDS011;6639;50.956;4.242;2022-07-29T04:54:15;3.90;;;2.33;;
13147;SDS011;6639;50.956;4.242;2022-07-29T04:56:42;2.53;;;2.33;;
13147;SDS011;6639;50.956;4.242;2022-07-29T04:59:11;2.72;;;2.53;;
13147;SDS011;6639;50.956;4.242;2022-07-29T05:01:39;4.45;;;2.45;;
13147;SDS011;6639;50.956;4.242;2022-07-29T05:04:06;4.18;;;2.20;;
13147;SDS011;6639;50.956;4.242;2022-07-29T05:06:33;2.90;;;2.05;;
13147;SDS011;6639;50.956;4.242;2022-07-29T05:09:00;5.22;;;2.35;;
13147;SDS011;6639;50.956;4.242;2022-07-29T05:11:26;4.78;;;2.30;;
13147;SDS011;6639;50.956;4.242;2022-07-29T05:13:53;4.30;;;2.15;;
13147;SDS011;6639;50.956;4.242;2022-07-29T05:16:20;4.45;;;2.30;;
13147;SDS011;6639;50.956;4.242;2022-07-29T05:18:48;3.72;;;2.50;;
13147;SDS011;6639;50.956;4.242;2022-07-29T05:21:15;3.53;;;2.45;;
13147;SDS011;6639;50.956;4.242;2022-07-29T05:23:42;3.30;;;2.40;;
13147;SDS011;6639;50.956;4.242;2022-07-29T05:26:09;2.28;;;2.10;;
13147;SDS011;6639;50.956;4.242;2022-07-29T05:28:37;3.85;;;2.50;;
13147;SDS011;6639;50.956;4.242;2022-07-29T05:31:04;5.97;;;2.65;;
13147;SDS011;6639;50.956;4.242;2022-07-29T05:33:30;3.08;;;2.78;;
13147;SDS011;6639;50.956;4.242;2022-07-29T05:35:59;3.22;;;2.70;;
13147;SDS011;6639;50.956;4.242;2022-07-29T05:38:25;2.92;;;2.50;;
13147;SDS011;6639;50.956;4.242;2022-07-29T05:40:52;2.35;;;2.15;;
13147;SDS011;6639;50.956;4.242;2022-07-29T05:43:22;5.32;;;2.97;;
13147;SDS011;6639;50.956;4.242;2022-07-29T05:45:49;6.28;;;2.92;;
13147;SDS011;6639;50.956;4.242;2022-07-29T05:48:15;3.80;;;2.97;;
13147;SDS011;6639;50.956;4.242;2022-07-29T05:50:42;5.97;;;2.78;;
13147;SDS011;6639;50.956;4.242;2022-07-29T05:53:10;2.90;;;2.70;;
13147;SDS011;6639;50.956;4.242;2022-07-29T05:55:37;3.08;;;2.78;;
13147;SDS011;6639;50.956;4.242;2022-07-29T05:58:04;4.65;;;2.78;;
13147;SDS011;6639;50.956;4.242;2022-07-29T06:00:31;2.60;;;2.40;;
13147;SDS011;6639;50.956;4.242;2022-07-29T06:02:58;5.55;;;2.80;;
13147;SDS011;6639;50.956;4.242;2022-07-29T06:05:25;2.88;;;2.58;;
13147;SDS011;6639;50.956;4.242;2022-07-29T06:07:51;3.65;;;3.10;;
13147;SDS011;6639;50.956;4.242;2022-07-29T06:10:20;3.55;;;3.03;;
13147;SDS011;6639;50.956;4.242;2022-07-29T06:12:47;4.82;;;3.22;;
13147;SDS011;6639;50.956;4.242;2022-07-29T06:15:13;4.05;;;2.80;;
13147;SDS011;6639;50.956;4.242;2022-07-29T06:17:40;3.70;;;2.80;;
13147;SDS011;6639;50.956;4.242;2022-07-29T06:20:08;3.40;;;2.78;;
13147;SDS011;6639;50.956;4.242;2022-07-29T06:22:36;5.28;;;2.78;;
13147;SDS011;6639;50.956;4.242;2022-07-29T06:25:03;4.82;;;2.88;;
13147;SDS011;6639;50.956;4.242;2022-07-29T06:27:32;4.07;;;2.60;;
13147;SDS011;6639;50.956;4.242;2022-07-29T06:29:59;3.72;;;2.97;;
13147;SDS011;6639;50.956;4.242;2022-07-29T06:32:26;4.60;;;2.63;;
13147;SDS011;6639;50.956;4.242;2022-07-29T06:34:53;5.80;;;3.47;;
13147;SDS011;6639;50.956;4.242;2022-07-29T06:37:20;4.88;;;2.47;;
13147;SDS011;6639;50.956;4.242;2022-07-29T06:39:47;4.55;;;2.92;;
13147;SDS011;6639;50.956;4.242;2022-07-29T06:42:35;6.22;;;3.10;;
13147;SDS011;6639;50.956;4.242;2022-07-29T06:45:02;4.05;;;2.80;;
13147;SDS011;6639;50.956;4.242;2022-07-29T06:47:29;3.10;;;2.83;;
13147;SDS011;6639;50.956;4.242;2022-07-29T06:49:56;4.45;;;2.95;;
13147;SDS011;6639;50.956;4.242;2022-07-29T06:52:23;4.00;;;3.20;;
13147;SDS011;6639;50.956;4.242;2022-07-29T06:54:50;3.25;;;2.80;;
13147;SDS011;6639;50.956;4.242;2022-07-29T06:57:17;2.95;;;2.58;;
13147;SDS011;6639;50.956;4.242;2022-07-29T06:59:46;4.60;;;3.05;;
13147;SDS011;6639;50.956;4.242;2022-07-29T07:02:13;6.18;;;3.13;;
13147;SDS011;6639;50.956;4.242;2022-07-29T07:04:40;3.40;;;3.10;;
13147;SDS011;6639;50.956;4.242;2022-07-29T07:07:06;7.80;;;3.42;;
13147;SDS011;6639;50.956;4.242;2022-07-29T07:09:33;3.35;;;2.97;;
13147;SDS011;6639;50.956;4.242;2022-07-29T07:12:00;4.00;;;3.00;;
13147;SDS011;6639;50.956;4.242;2022-07-29T07:14:27;3.78;;;3.08;;
13147;SDS011;6639;50.956;4.242;2022-07-29T07:16:55;3.60;;;2.92;;
13147;SDS011;6639;50.956;4.242;2022-07-29T07:19:22;3.75;;;2.30;;
13147;SDS011;6639;50.956;4.242;2022-07-29T07:21:49;2.58;;;2.40;;
13147;SDS011;6639;50.956;4.242;2022-07-29T07:24:16;3.92;;;3.13;;
13147;SDS011;6639;50.956;4.242;2022-07-29T07:26:43;3.55;;;2.67;;
13147;SDS011;6639;50.956;4.242;2022-07-29T07:29:10;2.85;;;2.20;;
13147;SDS011;6639;50.956;4.242;2022-07-29T07:31:38;4.07;;;2.40;;
13147;SDS011;6639;50.956;4.242;2022-07-29T07:34:06;4.63;;;3.03;;
13147;SDS011;6639;50.956;4.242;2022-07-29T07:36:33;2.80;;;2.60;;
13147;SDS011;6639;50.956;4.242;2022-07-29T07:39:00;4.20;;;2.80;;
13147;SDS011;6639;50.956;4.242;2022-07-29T07:41:27;3.00;;;2.70;;
13147;SDS011;6639;50.956;4.242;2022-07-29T07:43:54;3.50;;;3.10;;
13147;SDS011;6639;50.956;4.242;2022-07-29T07:46:21;4.88;;;2.70;;
13147;SDS011;6639;50.956;4.242;2022-07-29T07:48:48;2.60;;;2.40;;
13147;SDS011;6639;50.956;4.242;2022-07-29T07:51:16;4.53;;;2.60;;
13147;SDS011;6639;50.956;4.242;2022-07-29T07:53:43;3.05;;;2.30;;
13147;SDS011;6639;50.956;4.242;2022-07-29T07:56:10;4.93;;;2.55;;
13147;SDS011;6639;50.956;4.242;2022-07-29T07:58:37;4.07;;;2.60;;
13147;SDS011;6639;50.956;4.242;2022-07-29T08:01:04;3.75;;;2.70;;
13147;SDS011;6639;50.956;4.242;2022-07-29T08:03:31;2.88;;;2.67;;
13147;SDS011;6639;50.956;4.242;2022-07-29T08:05:59;2.83;;;1.83;;
13147;SDS011;6639;50.956;4.242;2022-07-29T08:08:27;5.85;;;2.78;;
13147;SDS011;6639;50.956;4.242;2022-07-29T08:10:54;4.30;;;2.42;;
13147;SDS011;6639;50.956;4.242;2022-07-29T08:13:22;3.88;;;2.60;;
13147;SDS011;6639;50.956;4.242;2022-07-29T08:15:52;3.60;;;2.38;;
13147;SDS011;6639;50.956;4.242;2022-07-29T08:18:24;4.82;;;2.28;;
13147;SDS011;6639;50.956;4.242;2022-07-29T08:20:51;2.22;;;2.00;;
13147;SDS011;6639;50.956;4.242;2022-07-29T08:23:18;5.97;;;2.22;;
13147;SDS011;6639;50.956;4.242;2022-07-29T08:25:46;5.93;;;2.40;;
13147;SDS011;6639;50.956;4.242;2022-07-29T08:28:13;2.88;;;2.00;;
13147;SDS011;6639;50.956;4.242;2022-07-29T08:30:40;2.20;;;2.00;;
13147;SDS011;6639;50.956;4.242;2022-07-29T08:33:07;2.17;;;1.92;;
13147;SDS011;6639;50.956;4.242;2022-07-29T08:35:34;10.68;;;2.38;;
13147;SDS011;6639;50.956;4.242;2022-07-29T08:38:01;7.18;;;2.70;;
13147;SDS011;6639;50.956;4.242;2022-07-29T08:40:28;3.35;;;2.30;;
13147;SDS011;6639;50.956;4.242;2022-07-29T08:42:57;4.15;;;2.35;;
13147;SDS011;6639;50.956;4.242;2022-07-29T08:45:24;2.67;;;2.47;;
13147;SDS011;6639;50.956;4.242;2022-07-29T08:47:52;3.13;;;2.47;;
13147;SDS011;6639;50.956;4.242;2022-07-29T08:50:19;2.65;;;2.45;;
13147;SDS011;6639;50.956;4.242;2022-07-29T08:52:46;4.95;;;2.35;;
13147;SDS011;6639;50.956;4.242;2022-07-29T08:55:15;2.58;;;2.38;;
13147;SDS011;6639;50.956;4.242;2022-07-29T08:57:43;3.30;;;2.22;;
13147;SDS011;6639;50.956;4.242;2022-07-29T09:00:12;4.22;;;2.63;;
13147;SDS011;6639;50.956;4.242;2022-07-29T09:02:39;2.20;;;2.00;;
13147;SDS011;6639;50.956;4.242;2022-07-29T09:05:09;3.42;;;2.38;;
13147;SDS011;6639;50.956;4.242;2022-07-29T09:07:36;3.30;;;2.22;;
13147;SDS011;6639;50.956;4.242;2022-07-29T09:10:07;4.00;;;2.03;;
13147;SDS011;6639;50.956;4.242;2022-07-29T09:12:35;2.85;;;2.42;;
13147;SDS011;6639;50.956;4.242;2022-07-29T09:15:02;4.05;;;2.33;;
13147;SDS011;6639;50.956;4.242;2022-07-29T09:17:40;4.07;;;2.40;;
13147;SDS011;6639;50.956;4.242;2022-07-29T09:20:08;3.60;;;2.00;;
13147;SDS011;6639;50.956;4.242;2022-07-29T09:22:35;2.33;;;2.13;;
13147;SDS011;6639;50.956;4.242;2022-07-29T09:25:03;3.40;;;2.40;;
13147;SDS011;6639;50.956;4.242;2022-07-29T09:27:30;3.67;;;2.50;;
13147;SDS011;6639;50.956;4.242;2022-07-29T09:29:59;4.00;;;2.55;;
13147;SDS011;6639;50.956;4.242;2022-07-29T09:32:26;4.63;;;2.97;;
13147;SDS011;6639;50.956;4.242;2022-07-29T09:37:47;3.95;;;3.05;;
13147;SDS011;6639;50.956;4.242;2022-07-29T09:40:16;3.55;;;3.25;;
13147;SDS011;6639;50.956;4.242;2022-07-29T09:42:44;6.25;;;3.55;;
13147;SDS011;6639;50.956;4.242;2022-07-29T09:45:11;4.25;;;3.40;;
13147;SDS011;6639;50.956;4.242;2022-07-29T09:47:42;5.10;;;3.78;;
13147;SDS011;6639;50.956;4.242;2022-07-29T09:50:12;3.30;;;3.08;;
13147;SDS011;6639;50.956;4.242;2022-07-29T09:52:47;4.10;;;3.20;;
13147;SDS011;6639;50.956;4.242;2022-07-29T09:55:16;3.33;;;3.03;;
13147;SDS011;6639;50.956;4.242;2022-07-29T09:57:44;5.28;;;3.30;;
13147;SDS011;6639;50.956;4.242;2022-07-29T10:00:12;4.70;;;3.47;;
13147;SDS011;6639;50.956;4.242;2022-07-29T10:02:41;4.03;;;3.72;;
13147;SDS011;6639;50.956;4.242;2022-07-29T10:05:19;5.00;;;3.40;;
13147;SDS011;6639;50.956;4.242;2022-07-29T10:07:49;4.85;;;3.85;;
13147;SDS011;6639;50.956;4.242;2022-07-29T10:10:21;3.58;;;2.92;;
13147;SDS011;6639;50.956;4.242;2022-07-29T10:12:50;4.32;;;3.20;;
13147;SDS011;6639;50.956;4.242;2022-07-29T10:15:19;3.60;;;3.10;;
13147;SDS011;6639;50.956;4.242;2022-07-29T10:17:48;4.65;;;3.88;;
13147;SDS011;6639;50.956;4.242;2022-07-29T10:20:16;3.85;;;3.03;;
13147;SDS011;6639;50.956;4.242;2022-07-29T10:22:44;5.18;;;3.08;;
13147;SDS011;6639;50.956;4.242;2022-07-29T10:25:13;5.55;;;3.08;;
13147;SDS011;6639;50.956;4.242;2022-07-29T10:27:41;5.15;;;3.60;;
13147;SDS011;6639;50.956;4.242;2022-07-29T10:30:09;4.43;;;3.22;;
13147;SDS011;6639;50.956;4.242;2022-07-29T10:32:43;7.43;;;4.10;;
13147;SDS011;6639;50.956;4.242;2022-07-29T10:35:33;5.40;;;3.03;;
13147;SDS011;6639;50.956;4.242;2022-07-29T10:41:31;3.75;;;2.58;;
13147;SDS011;6639;50.956;4.242;2022-07-29T10:44:16;3.78;;;2.42;;
13147;SDS011;6639;50.956;4.242;2022-07-29T10:46:45;5.40;;;2.60;;
13147;SDS011;6639;50.956;4.242;2022-07-29T10:49:13;3.53;;;2.30;;
13147;SDS011;6639;50.956;4.242;2022-07-29T10:52:01;4.82;;;2.83;;
13147;SDS011;6639;50.956;4.242;2022-07-29T10:54:46;3.13;;;2.10;;
13147;SDS011;6639;50.956;4.242;2022-07-29T10:57:19;4.88;;;2.63;;
13147;SDS011;6639;50.956;4.242;2022-07-29T10:59:48;3.65;;;2.15;;
13147;SDS011;6639;50.956;4.242;2022-07-29T11:05:09;2.30;;;2.10;;
13147;SDS011;6639;50.956;4.242;2022-07-29T11:07:38;6.82;;;2.97;;
13147;SDS011;6639;50.956;4.242;2022-07-29T11:10:25;3.00;;;2.63;;
13147;SDS011;6639;50.956;4.242;2022-07-29T11:12:54;4.15;;;2.45;;
13147;SDS011;6639;50.956;4.242;2022-07-29T11:15:21;3.08;;;2.42;;
13147;SDS011;6639;50.956;4.242;2022-07-29T11:18:07;2.92;;;2.60;;
13147;SDS011;6639;50.956;4.242;2022-07-29T11:20:36;2.72;;;2.05;;
13147;SDS011;6639;50.956;4.242;2022-07-29T11:23:21;4.70;;;2.50;;
13147;SDS011;6639;50.956;4.242;2022-07-29T11:28:49;3.03;;;2.40;;
13147;SDS011;6639;50.956;4.242;2022-07-29T11:31:33;3.47;;;2.47;;
13147;SDS011;6639;50.956;4.242;2022-07-29T11:34:15;5.68;;;2.53;;
13147;SDS011;6639;50.956;4.242;2022-07-29T11:39:44;5.95;;;2.60;;
13147;SDS011;6639;50.956;4.242;2022-07-29T11:45:21;3.88;;;2.42;;
13147;SDS011;6639;50.956;4.242;2022-07-29T11:47:57;2.65;;;2.40;;
13147;SDS011;6639;50.956;4.242;2022-07-29T11:50:29;5.85;;;2.38;;
13147;SDS011;6639;50.956;4.242;2022-07-29T11:52:57;4.82;;;2.35;;
13147;SDS011;6639;50.956;4.242;2022-07-29T11:55:24;6.68;;;1.98;;
13147;SDS011;6639;50.956;4.242;2022-07-29T11:57:52;3.25;;;1.70;;
13147;SDS011;6639;50.956;4.242;2022-07-29T12:00:25;4.30;;;1.95;;
13147;SDS011;6639;50.956;4.242;2022-07-29T12:02:54;4.72;;;1.90;;
13147;SDS011;6639;50.956;4.242;2022-07-29T12:05:29;2.55;;;1.73;;
13147;SDS011;6639;50.956;4.242;2022-07-29T12:08:07;2.22;;;1.60;;
13147;SDS011;6639;50.956;4.242;2022-07-29T12:10:39;1.83;;;1.52;;
13147;SDS011;6639;50.956;4.242;2022-07-29T12:13:09;3.60;;;1.73;;
13147;SDS011;6639;50.956;4.242;2022-07-29T12:15:38;2.70;;;1.75;;
13147;SDS011;6639;50.956;4.242;2022-07-29T12:18:12;3.00;;;1.77;;
13147;SDS011;6639;50.956;4.242;2022-07-29T12:20:40;2.67;;;1.98;;
13147;SDS011;6639;50.956;4.242;2022-07-29T12:23:08;3.72;;;1.70;;
13147;SDS011;6639;50.956;4.242;2022-07-29T12:25:40;2.88;;;1.88;;
13147;SDS011;6639;50.956;4.242;2022-07-29T12:28:08;3.88;;;1.70;;
13147;SDS011;6639;50.956;4.242;2022-07-29T12:30:39;4.35;;;2.05;;
13147;SDS011;6639;50.956;4.242;2022-07-29T12:33:12;1.95;;;1.65;;
13147;SDS011;6639;50.956;4.242;2022-07-29T12:35:40;1.83;;;1.70;;
13147;SDS011;6639;50.956;4.242;2022-07-29T12:38:09;2.83;;;1.60;;
13147;SDS011;6639;50.956;4.242;2022-07-29T12:40:37;2.67;;;1.75;;
13147;SDS011;6639;50.956;4.242;2022-07-29T12:43:04;1.83;;;1.73;;
13147;SDS011;6639;50.956;4.242;2022-07-29T12:45:34;4.05;;;2.00;;
13147;SDS011;6639;50.956;4.242;2022-07-29T12:48:03;3.58;;;1.80;;
13147;SDS011;6639;50.956;4.242;2022-07-29T12:50:33;4.53;;;1.85;;
13147;SDS011;6639;50.956;4.242;2022-07-29T12:53:10;4.57;;;2.20;;
13147;SDS011;6639;50.956;4.242;2022-07-29T12:55:38;3.78;;;2.20;;
13147;SDS011;6639;50.956;4.242;2022-07-29T12:58:10;4.57;;;1.92;;
13147;SDS011;6639;50.956;4.242;2022-07-29T13:00:36;3.50;;;2.00;;
13147;SDS011;6639;50.956;4.242;2022-07-29T13:03:05;2.83;;;1.70;;
13147;SDS011;6639;50.956;4.242;2022-07-29T13:05:41;4.90;;;1.77;;
13147;SDS011;6639;50.956;4.242;2022-07-29T13:08:13;2.40;;;1.90;;
13147;SDS011;6639;50.956;4.242;2022-07-29T13:10:41;3.30;;;1.83;;
13147;SDS011;6639;50.956;4.242;2022-07-29T13:13:08;2.13;;;1.50;;
13147;SDS011;6639;50.956;4.242;2022-07-29T13:15:37;2.53;;;1.80;;
13147;SDS011;6639;50.956;4.242;2022-07-29T13:18:25;4.90;;;1.70;;
13147;SDS011;6639;50.956;4.242;2022-07-29T13:20:53;2.58;;;1.88;;
13147;SDS011;6639;50.956;4.242;2022-07-29T13:23:20;3.08;;;1.83;;
13147;SDS011;6639;50.956;4.242;2022-07-29T13:25:47;1.85;;;1.55;;
13147;SDS011;6639;50.956;4.242;2022-07-29T13:28:14;2.45;;;1.73;;
13147;SDS011;6639;50.956;4.242;2022-07-29T13:30:41;1.60;;;1.50;;
13147;SDS011;6639;50.956;4.242;2022-07-29T13:33:10;2.03;;;1.70;;
13147;SDS011;6639;50.956;4.242;2022-07-29T13:35:37;4.55;;;2.03;;
13147;SDS011;6639;50.956;4.242;2022-07-29T13:38:04;3.85;;;1.85;;
13147;SDS011;6639;50.956;4.242;2022-07-29T13:40:30;2.42;;;1.85;;
13147;SDS011;6639;50.956;4.242;2022-07-29T13:43:00;2.08;;;1.50;;
13147;SDS011;6639;50.956;4.242;2022-07-29T13:45:27;3.05;;;1.65;;
13147;SDS011;6639;50.956;4.242;2022-07-29T13:47:54;3.03;;;1.55;;
13147;SDS011;6639;50.956;4.242;2022-07-29T13:50:22;3.65;;;1.60;;
13147;SDS011;6639;50.956;4.242;2022-07-29T13:52:49;3.17;;;1.85;;
13147;SDS011;6639;50.956;4.242;2022-07-29T13:55:16;2.45;;;1.55;;
13147;SDS011;6639;50.956;4.242;2022-07-29T13:57:43;2.13;;;1.60;;
13147;SDS011;6639;50.956;4.242;2022-07-29T14:00:10;4.28;;;1.95;;
13147;SDS011;6639;50.956;4.242;2022-07-29T14:02:38;6.15;;;1.95;;
13147;SDS011;6639;50.956;4.242;2022-07-29T14:05:05;4.28;;;1.80;;
13147;SDS011;6639;50.956;4.242;2022-07-29T14:07:34;1.63;;;1.50;;
13147;SDS011;6639;50.956;4.242;2022-07-29T14:10:01;4.57;;;1.70;;
13147;SDS011;6639;50.956;4.242;2022-07-29T14:12:29;3.58;;;1.75;;
13147;SDS011;6639;50.956;4.242;2022-07-29T14:14:55;2.17;;;1.77;;
13147;SDS011;6639;50.956;4.242;2022-07-29T14:17:22;3.10;;;1.80;;
13147;SDS011;6639;50.956;4.242;2022-07-29T14:19:49;3.20;;;2.00;;
13147;SDS011;6639;50.956;4.242;2022-07-29T14:22:16;3.38;;;2.22;;
13147;SDS011;6639;50.956;4.242;2022-07-29T14:24:45;3.13;;;2.10;;
13147;SDS011;6639;50.956;4.242;2022-07-29T14:27:12;5.07;;;2.38;;
13147;SDS011;6639;50.956;4.242;2022-07-29T14:29:39;2.65;;;2.20;;
13147;SDS011;6639;50.956;4.242;2022-07-29T14:32:05;3.92;;;2.63;;
13147;SDS011;6639;50.956;4.242;2022-07-29T14:34:34;3.72;;;1.95;;
13147;SDS011;6639;50.956;4.242;2022-07-29T14:37:01;3.67;;;1.88;;
13147;SDS011;6639;50.956;4.242;2022-07-29T14:39:30;3.85;;;2.22;;
13147;SDS011;6639;50.956;4.242;2022-07-29T14:41:58;3.53;;;2.00;;
13147;SDS011;6639;50.956;4.242;2022-07-29T14:44:25;4.15;;;2.20;;
13147;SDS011;6639;50.956;4.242;2022-07-29T14:46:55;5.45;;;2.75;;
13147;SDS011;6639;50.956;4.242;2022-07-29T14:49:23;3.20;;;2.90;;
13147;SDS011;6639;50.956;4.242;2022-07-29T14:51:49;4.38;;;2.83;;
13147;SDS011;6639;50.956;4.242;2022-07-29T14:54:16;4.82;;;2.38;;
13147;SDS011;6639;50.956;4.242;2022-07-29T14:56:43;2.42;;;2.22;;
13147;SDS011;6639;50.956;4.242;2022-07-29T14:59:11;3.97;;;2.22;;
13147;SDS011;6639;50.956;4.242;2022-07-29T15:01:38;4.95;;;2.30;;
13147;SDS011;6639;50.956;4.242;2022-07-29T15:04:05;3.92;;;2.63;;
13147;SDS011;6639;50.956;4.242;2022-07-29T15:06:32;4.22;;;2.15;;
13147;SDS011;6639;50.956;4.242;2022-07-29T15:08:59;4.72;;;2.17;;
13147;SDS011;6639;50.956;4.242;2022-07-29T15:11:25;4.28;;;2.03;;
13147;SDS011;6639;50.956;4.242;2022-07-29T15:13:52;3.78;;;2.33;;
13147;SDS011;6639;50.956;4.242;2022-07-29T15:16:20;4.05;;;2.55;;
13147;SDS011;6639;50.956;4.242;2022-07-29T15:18:47;2.65;;;2.03;;
13147;SDS011;6639;50.956;4.242;2022-07-29T15:21:14;3.40;;;2.30;;
13147;SDS011;6639;50.956;4.242;2022-07-29T15:23:41;3.35;;;2.35;;
13147;SDS011;6639;50.956;4.242;2022-07-29T15:26:09;4.90;;;1.90;;
13147;SDS011;6639;50.956;4.242;2022-07-29T15:28:35;3.78;;;2.00;;
13147;SDS011;6639;50.956;4.242;2022-07-29T15:31:03;5.18;;;2.88;;